createdAt,value
2018-06-14T00:00:53.730Z,992.51
2018-06-14T00:01:53.871Z,992.43
2018-06-14T00:02:54.030Z,992.48
2018-06-14T00:03:54.203Z,992.48
2018-06-14T00:04:54.371Z,992.42
2018-06-14T00:05:54.542Z,992.40
2018-06-14T00:06:54.729Z,992.45
2018-06-14T00:07:55.110Z,992.44
2018-06-14T00:08:55.021Z,992.41
2018-06-14T00:09:55.188Z,992.45
2018-06-14T00:10:55.372Z,992.45
2018-06-14T00:11:55.543Z,992.45
2018-06-14T00:12:55.714Z,992.44
2018-06-14T00:13:55.875Z,992.50
2018-06-14T00:14:56.056Z,992.51
2018-06-14T00:15:56.246Z,992.47
2018-06-14T00:16:56.395Z,992.50
2018-06-14T00:17:56.567Z,992.50
2018-06-14T00:18:56.725Z,992.48
2018-06-14T00:19:56.888Z,992.42
2018-06-14T00:20:57.310Z,992.47
2018-06-14T00:21:57.249Z,992.47
2018-06-14T00:22:57.426Z,992.41
2018-06-14T00:23:57.578Z,992.43
2018-06-14T00:24:57.745Z,992.43
2018-06-14T00:25:57.944Z,992.39
2018-06-14T00:26:58.105Z,992.40
2018-06-14T00:27:58.262Z,992.39
2018-06-14T00:28:58.444Z,992.39
2018-06-14T00:29:58.612Z,992.35
2018-06-14T00:30:59.050Z,992.40
2018-06-14T00:31:58.970Z,992.41
2018-06-14T00:32:59.113Z,992.44
2018-06-14T00:33:59.289Z,992.41
2018-06-14T00:34:59.444Z,992.46
2018-06-14T00:35:59.610Z,992.43
2018-06-14T00:36:59.771Z,992.50
2018-06-14T00:37:59.969Z,992.46
2018-06-14T00:39:00.134Z,992.48
2018-06-14T00:40:00.297Z,992.50
2018-06-14T00:41:00.459Z,992.47
2018-06-14T00:42:00.623Z,992.46
2018-06-14T00:43:00.822Z,992.47
2018-06-14T00:44:00.961Z,992.49
2018-06-14T00:45:01.153Z,992.47
2018-06-14T00:46:01.349Z,992.48
2018-06-14T00:47:01.533Z,992.51
2018-06-14T00:48:01.685Z,992.47
2018-06-14T00:49:01.876Z,992.49
2018-06-14T00:50:02.033Z,992.45
2018-06-14T00:51:02.204Z,992.38
2018-06-14T00:52:02.371Z,992.37
2018-06-14T00:53:02.552Z,992.35
2018-06-14T00:54:02.712Z,992.36
2018-06-14T00:55:02.890Z,992.38
2018-06-14T00:56:03.067Z,992.37
2018-06-14T00:57:03.255Z,992.39
2018-06-14T00:58:03.435Z,992.40
2018-06-14T00:59:03.628Z,992.39
2018-06-14T01:00:03.801Z,992.45
2018-06-14T01:01:03.944Z,992.46
2018-06-14T01:02:04.134Z,992.44
2018-06-14T01:03:04.293Z,992.47
2018-06-14T01:04:04.457Z,992.42
2018-06-14T01:05:04.624Z,992.41
2018-06-14T01:06:04.807Z,992.41
2018-06-14T01:07:04.986Z,992.44
2018-06-14T01:08:05.147Z,992.43
2018-06-14T01:09:05.354Z,992.44
2018-06-14T01:10:05.500Z,992.49
2018-06-14T01:11:05.659Z,992.47
2018-06-14T01:12:05.830Z,992.46
2018-06-14T01:13:05.996Z,992.53
2018-06-14T01:14:06.176Z,992.50
2018-06-14T01:15:06.359Z,992.49
2018-06-14T01:16:06.533Z,992.51
2018-06-14T01:17:06.969Z,992.51
2018-06-14T01:18:06.891Z,992.51
2018-06-14T01:19:07.059Z,992.49
2018-06-14T01:20:07.229Z,992.49
2018-06-14T01:21:07.401Z,992.50
2018-06-14T01:22:07.585Z,992.52
2018-06-14T01:23:07.776Z,992.53
2018-06-14T01:24:07.917Z,992.48
2018-06-14T01:25:08.084Z,992.45
2018-06-14T01:26:08.267Z,992.44
2018-06-14T01:27:08.401Z,992.43
2018-06-14T01:28:08.583Z,992.41
2018-06-14T01:29:08.758Z,992.43
2018-06-14T01:30:08.936Z,992.42
2018-06-14T01:31:09.086Z,992.40
2018-06-14T01:32:09.246Z,992.41
2018-06-14T01:33:09.443Z,992.44
2018-06-14T01:34:09.615Z,992.38
2018-06-14T01:35:09.801Z,992.38
2018-06-14T01:36:09.963Z,992.42
2018-06-14T01:37:10.131Z,992.37
2018-06-14T01:38:10.308Z,992.39
2018-06-14T01:39:10.509Z,992.38
2018-06-14T01:40:10.891Z,992.36
2018-06-14T01:41:10.804Z,992.32
2018-06-14T01:42:10.997Z,992.36
2018-06-14T01:43:11.166Z,992.39
2018-06-14T01:44:11.300Z,992.35
2018-06-14T01:45:11.472Z,992.34
2018-06-14T01:46:11.650Z,992.33
2018-06-14T01:47:11.827Z,992.39
2018-06-14T01:48:12.006Z,992.39
2018-06-14T01:49:12.169Z,992.36
2018-06-14T01:50:12.354Z,992.40
2018-06-14T01:51:12.523Z,992.41
2018-06-14T01:52:12.696Z,992.41
2018-06-14T01:53:12.873Z,992.44
2018-06-14T01:54:13.033Z,992.43
2018-06-14T01:55:13.211Z,992.43
2018-06-14T01:56:13.379Z,992.38
2018-06-14T01:57:13.545Z,992.38
2018-06-14T01:58:13.717Z,992.45
2018-06-14T01:59:13.884Z,992.39
2018-06-14T02:00:14.053Z,992.45
2018-06-14T02:01:14.231Z,992.45
2018-06-14T02:02:14.403Z,992.42
2018-06-14T02:03:14.820Z,992.45
2018-06-14T02:04:14.741Z,992.44
2018-06-14T02:05:14.920Z,992.42
2018-06-14T02:06:15.343Z,992.40
2018-06-14T02:07:15.250Z,992.41
2018-06-14T02:08:15.418Z,992.40
2018-06-14T02:09:15.596Z,992.42
2018-06-14T02:10:15.761Z,992.44
2018-06-14T02:11:15.933Z,992.46
2018-06-14T02:12:16.099Z,992.46
2018-06-14T02:13:16.260Z,992.45
2018-06-14T02:14:16.447Z,992.45
2018-06-14T02:15:16.611Z,992.47
2018-06-14T02:16:17.031Z,992.45
2018-06-14T02:17:16.953Z,992.46
2018-06-14T02:18:17.122Z,992.43
2018-06-14T02:19:17.306Z,992.45
2018-06-14T02:20:17.484Z,992.44
2018-06-14T02:21:17.686Z,992.43
2018-06-14T02:22:17.833Z,992.49
2018-06-14T02:23:18.008Z,992.46
2018-06-14T02:24:18.171Z,992.43
2018-06-14T02:25:18.344Z,992.46
2018-06-14T02:26:18.749Z,992.49
2018-06-14T02:27:18.675Z,992.50
2018-06-14T02:28:18.844Z,992.51
2018-06-14T02:29:19.022Z,992.51
2018-06-14T02:30:19.189Z,992.50
2018-06-14T02:31:19.353Z,992.49
2018-06-14T02:32:19.516Z,992.55
2018-06-14T02:33:19.688Z,992.49
2018-06-14T02:34:19.869Z,992.53
2018-06-14T02:35:20.051Z,992.52
2018-06-14T02:36:20.252Z,992.54
2018-06-14T02:37:20.390Z,992.53
2018-06-14T02:38:20.569Z,992.53
2018-06-14T02:40:21.343Z,992.51
2018-06-14T02:41:21.085Z,992.51
2018-06-14T02:42:21.264Z,992.53
2018-06-14T02:43:21.474Z,992.53
2018-06-14T02:44:21.612Z,992.50
2018-06-14T02:45:21.835Z,992.56
2018-06-14T02:46:21.963Z,992.53
2018-06-14T02:47:22.140Z,992.54
2018-06-14T02:48:22.317Z,992.51
2018-06-14T02:49:22.495Z,992.48
2018-06-14T02:50:22.684Z,992.50
2018-06-14T02:51:22.864Z,992.50
2018-06-14T02:52:23.056Z,992.49
2018-06-14T02:53:23.231Z,992.52
2018-06-14T02:54:23.411Z,992.51
2018-06-14T02:55:23.605Z,992.52
2018-06-14T02:56:23.773Z,992.53
2018-06-14T02:57:23.938Z,992.57
2018-06-14T02:58:24.129Z,992.56
2018-06-14T02:59:24.286Z,992.58
2018-06-14T03:00:24.494Z,992.54
2018-06-14T03:01:24.620Z,992.58
2018-06-14T03:02:24.787Z,992.54
2018-06-14T03:03:24.961Z,992.54
2018-06-14T03:04:25.138Z,992.57
2018-06-14T03:05:25.325Z,992.59
2018-06-14T03:06:25.504Z,992.57
2018-06-14T03:07:25.689Z,992.56
2018-06-14T03:08:25.858Z,992.59
2018-06-14T03:09:26.027Z,992.53
2018-06-14T03:10:26.206Z,992.50
2018-06-14T03:11:26.390Z,992.48
2018-06-14T03:12:26.551Z,992.55
2018-06-14T03:13:26.719Z,992.58
2018-06-14T03:14:26.910Z,992.58
2018-06-14T03:15:27.064Z,992.56
2018-06-14T03:16:27.248Z,992.54
2018-06-14T03:17:27.419Z,992.58
2018-06-14T03:18:27.633Z,992.62
2018-06-14T03:19:27.801Z,992.58
2018-06-14T03:20:28.006Z,992.62
2018-06-14T03:21:28.150Z,992.60
2018-06-14T03:22:28.295Z,992.56
2018-06-14T03:23:28.490Z,992.55
2018-06-14T03:24:28.671Z,992.53
2018-06-14T03:25:28.820Z,992.57
2018-06-14T03:26:28.996Z,992.54
2018-06-14T03:27:29.188Z,992.52
2018-06-14T03:28:29.358Z,992.57
2018-06-14T03:29:29.524Z,992.56
2018-06-14T03:30:29.680Z,992.57
2018-06-14T03:31:29.869Z,992.55
2018-06-14T03:32:30.061Z,992.57
2018-06-14T03:33:30.244Z,992.58
2018-06-14T03:34:30.414Z,992.58
2018-06-14T03:35:30.563Z,992.57
2018-06-14T03:36:30.727Z,992.61
2018-06-14T03:37:30.917Z,992.55
2018-06-14T03:38:31.070Z,992.54
2018-06-14T03:39:31.262Z,992.58
2018-06-14T03:40:31.418Z,992.58
2018-06-14T03:41:31.590Z,992.59
2018-06-14T03:42:31.760Z,992.64
2018-06-14T03:43:31.933Z,992.64
2018-06-14T03:44:32.092Z,992.61
2018-06-14T03:45:32.280Z,992.61
2018-06-14T03:46:32.482Z,992.61
2018-06-14T03:47:32.607Z,992.57
2018-06-14T03:48:32.788Z,992.63
2018-06-14T03:49:32.971Z,992.58
2018-06-14T03:50:33.126Z,992.59
2018-06-14T03:51:33.305Z,992.59
2018-06-14T03:52:33.464Z,992.59
2018-06-14T03:53:33.638Z,992.56
2018-06-14T03:54:33.817Z,992.60
2018-06-14T03:55:33.997Z,992.61
2018-06-14T03:56:34.148Z,992.64
2018-06-14T03:57:34.312Z,992.66
2018-06-14T03:58:34.491Z,992.64
2018-06-14T03:59:34.648Z,992.63
2018-06-14T04:00:34.818Z,992.66
2018-06-14T04:01:34.993Z,992.64
2018-06-14T04:02:35.195Z,992.66
2018-06-14T04:03:35.338Z,992.65
2018-06-14T04:04:35.505Z,992.69
2018-06-14T04:05:35.671Z,992.71
2018-06-14T04:06:35.851Z,992.79
2018-06-14T04:07:36.026Z,992.76
2018-06-14T04:08:36.196Z,992.80
2018-06-14T04:09:36.394Z,992.74
2018-06-14T04:10:36.523Z,992.77
2018-06-14T04:11:36.697Z,992.77
2018-06-14T04:12:36.904Z,992.77
2018-06-14T04:13:37.058Z,992.74
2018-06-14T04:14:37.234Z,992.71
2018-06-14T04:15:37.411Z,992.71
2018-06-14T04:16:37.559Z,992.75
2018-06-14T04:17:37.757Z,992.76
2018-06-14T04:18:37.909Z,992.79
2018-06-14T04:19:38.061Z,992.86
2018-06-14T04:20:38.241Z,992.82
2018-06-14T04:21:38.418Z,992.84
2018-06-14T04:22:38.572Z,992.87
2018-06-14T04:23:38.743Z,992.86
2018-06-14T04:24:38.931Z,992.81
2018-06-14T04:25:39.345Z,992.84
2018-06-14T04:26:39.275Z,992.86
2018-06-14T04:27:39.452Z,992.79
2018-06-14T04:28:39.623Z,992.81
2018-06-14T04:29:39.815Z,992.80
2018-06-14T04:30:40.013Z,992.84
2018-06-14T04:31:40.174Z,992.85
2018-06-14T04:32:40.337Z,992.85
2018-06-14T04:33:40.516Z,992.86
2018-06-14T04:34:40.680Z,992.97
2018-06-14T04:35:40.845Z,992.93
2018-06-14T04:36:41.040Z,993.28
2018-06-14T04:37:41.211Z,993.18
2018-06-14T04:38:41.395Z,993.33
2018-06-14T04:39:41.560Z,993.36
2018-06-14T04:40:41.732Z,993.35
2018-06-14T04:41:41.916Z,993.32
2018-06-14T04:42:42.089Z,993.32
2018-06-14T04:43:42.260Z,993.40
2018-06-14T04:44:42.433Z,993.44
2018-06-14T04:45:42.605Z,993.39
2018-06-14T04:46:42.781Z,993.49
2018-06-14T04:47:42.969Z,993.45
2018-06-14T04:48:43.133Z,993.51
2018-06-14T04:49:43.316Z,993.44
2018-06-14T04:50:43.477Z,993.46
2018-06-14T04:51:43.646Z,993.45
2018-06-14T04:52:43.858Z,993.47
2018-06-14T04:53:44.047Z,993.45
2018-06-14T04:54:44.213Z,993.43
2018-06-14T04:55:44.412Z,993.39
2018-06-14T04:56:44.567Z,993.44
2018-06-14T04:57:44.748Z,993.46
2018-06-14T04:58:45.215Z,993.45
2018-06-14T04:59:45.135Z,993.39
2018-06-14T05:00:45.299Z,993.37
2018-06-14T05:01:45.486Z,993.29
2018-06-14T05:02:45.662Z,993.27
2018-06-14T05:03:45.840Z,993.28
2018-06-14T05:04:46.016Z,993.25
2018-06-14T05:05:46.200Z,993.27
2018-06-14T05:06:46.400Z,993.28
2018-06-14T05:07:46.547Z,993.27
2018-06-14T05:08:46.725Z,993.37
2018-06-14T05:09:46.899Z,993.39
2018-06-14T05:10:47.108Z,993.37
2018-06-14T05:11:47.288Z,993.36
2018-06-14T05:12:47.459Z,993.37
2018-06-14T05:13:47.697Z,993.39
2018-06-14T05:14:47.850Z,993.40
2018-06-14T05:15:48.033Z,993.36
2018-06-14T05:16:48.214Z,993.12
2018-06-14T05:17:48.388Z,993.27
2018-06-14T05:18:48.600Z,993.30
2018-06-14T05:19:48.791Z,993.25
2018-06-14T05:20:48.964Z,993.27
2018-06-14T05:21:49.133Z,993.27
2018-06-14T05:22:49.296Z,993.29
2018-06-14T05:23:49.491Z,993.31
2018-06-14T05:24:49.639Z,993.22
2018-06-14T05:25:49.816Z,993.25
2018-06-14T05:26:49.998Z,993.28
2018-06-14T05:27:50.189Z,993.36
2018-06-14T05:28:50.384Z,993.37
2018-06-14T05:29:50.812Z,993.38
2018-06-14T05:30:50.761Z,993.35
2018-06-14T05:31:50.944Z,993.40
2018-06-14T05:32:51.129Z,993.44
2018-06-14T05:33:51.318Z,993.41
2018-06-14T05:34:51.507Z,993.40
2018-06-14T05:35:51.687Z,993.39
2018-06-14T05:36:51.869Z,993.37
2018-06-14T05:37:52.063Z,993.41
2018-06-14T05:38:52.256Z,993.42
2018-06-14T05:39:52.453Z,993.36
2018-06-14T05:40:52.640Z,993.28
2018-06-14T05:41:52.826Z,993.14
2018-06-14T05:42:53.013Z,993.23
2018-06-14T05:43:53.207Z,993.24
2018-06-14T05:44:53.386Z,993.33
2018-06-14T05:45:53.595Z,993.44
2018-06-14T05:46:53.797Z,993.45
2018-06-14T05:47:53.981Z,993.38
2018-06-14T05:48:54.139Z,993.32
2018-06-14T05:49:54.329Z,993.34
2018-06-14T05:50:54.530Z,993.38
2018-06-14T05:51:54.691Z,993.43
2018-06-14T05:52:54.891Z,993.48
2018-06-14T05:53:55.084Z,993.37
2018-06-14T05:54:55.279Z,993.47
2018-06-14T05:55:55.462Z,993.47
2018-06-14T05:56:55.664Z,993.40
2018-06-14T05:57:55.841Z,993.43
2018-06-14T05:58:56.029Z,993.43
2018-06-14T05:59:56.218Z,993.33
2018-06-14T06:00:56.408Z,993.40
2018-06-14T06:01:56.597Z,993.38
2018-06-14T06:02:56.865Z,993.32
2018-06-14T06:03:56.966Z,993.30
2018-06-14T06:04:57.152Z,993.30
2018-06-14T06:05:57.340Z,993.31
2018-06-14T06:06:57.526Z,993.31
2018-06-14T06:07:57.960Z,993.30
2018-06-14T06:08:57.909Z,993.29
2018-06-14T06:09:58.105Z,993.27
2018-06-14T06:10:58.298Z,993.27
2018-06-14T06:11:58.560Z,993.24
2018-06-14T06:12:58.691Z,993.23
2018-06-14T06:13:58.872Z,993.24
2018-06-14T06:15:59.261Z,993.24
2018-06-14T06:16:59.447Z,993.25
2018-06-14T06:17:59.644Z,993.24
2018-06-14T06:18:59.825Z,993.22
2018-06-14T06:20:00.028Z,993.26
2018-06-14T06:21:00.208Z,993.23
2018-06-14T06:22:00.396Z,993.25
2018-06-14T06:23:00.597Z,993.26
2018-06-14T06:24:00.786Z,993.23
2018-06-14T06:25:00.973Z,993.25
2018-06-14T06:26:01.174Z,993.28
2018-06-14T06:27:01.353Z,993.30
2018-06-14T06:28:01.545Z,993.27
2018-06-14T06:29:01.737Z,993.23
2018-06-14T06:30:01.924Z,993.16
2018-06-14T06:31:02.113Z,993.09
2018-06-14T06:32:02.300Z,993.14
2018-06-14T06:33:02.493Z,993.03
2018-06-14T06:34:02.680Z,993.02
2018-06-14T06:35:02.874Z,992.91
2018-06-14T06:36:03.057Z,992.97
2018-06-14T06:37:03.248Z,993.01
2018-06-14T06:38:03.441Z,993.05
2018-06-14T06:39:03.627Z,993.01
2018-06-14T06:40:03.829Z,992.95
2018-06-14T06:41:04.012Z,992.95
2018-06-14T06:42:04.197Z,992.92
2018-06-14T06:43:04.387Z,992.92
2018-06-14T06:44:04.587Z,992.90
2018-06-14T06:45:04.834Z,992.84
2018-06-14T06:46:04.958Z,992.85
2018-06-14T06:47:05.157Z,992.87
2018-06-14T06:48:05.345Z,992.87
2018-06-14T06:49:05.534Z,992.85
2018-06-14T06:50:05.729Z,992.85
2018-06-14T06:51:05.921Z,992.87
2018-06-14T06:52:06.112Z,992.89
2018-06-14T06:53:06.336Z,992.87
2018-06-14T06:54:06.726Z,992.81
2018-06-14T06:55:06.687Z,992.89
2018-06-14T06:56:06.877Z,992.88
2018-06-14T06:57:07.062Z,992.89
2018-06-14T06:58:07.250Z,992.92
2018-06-14T06:59:07.440Z,992.95
2018-06-14T07:00:07.638Z,992.91
2018-06-14T07:01:07.826Z,992.88
2018-06-14T07:02:08.011Z,992.88
2018-06-14T07:03:08.204Z,992.88
2018-06-14T07:04:08.376Z,992.85
2018-06-14T07:05:08.588Z,992.86
2018-06-14T07:06:08.823Z,992.84
2018-06-14T07:07:08.956Z,992.85
2018-06-14T07:08:09.146Z,992.83
2018-06-14T07:09:09.342Z,992.83
2018-06-14T07:10:09.527Z,992.83
2018-06-14T07:11:09.708Z,992.83
2018-06-14T07:12:09.899Z,992.84
2018-06-14T07:13:10.083Z,992.82
2018-06-14T07:14:10.281Z,992.83
2018-06-14T07:15:10.461Z,992.81
2018-06-14T07:16:10.650Z,992.80
2018-06-14T07:17:11.096Z,992.80
2018-06-14T07:18:11.042Z,992.80
2018-06-14T07:19:11.232Z,992.76
2018-06-14T07:20:11.414Z,992.77
2018-06-14T07:21:11.596Z,992.79
2018-06-14T07:22:11.783Z,992.78
2018-06-14T07:23:11.964Z,992.72
2018-06-14T07:24:12.150Z,992.75
2018-06-14T07:25:12.338Z,992.76
2018-06-14T07:26:12.532Z,992.80
2018-06-14T07:27:12.720Z,992.73
2018-06-14T07:28:12.901Z,992.74
2018-06-14T07:29:13.327Z,992.78
2018-06-14T07:30:13.281Z,992.83
2018-06-14T07:31:13.473Z,992.82
2018-06-14T07:32:13.651Z,992.82
2018-06-14T07:33:13.841Z,992.83
2018-06-14T07:34:14.031Z,992.78
2018-06-14T07:35:14.219Z,992.76
2018-06-14T07:36:14.652Z,992.72
2018-06-14T07:37:14.600Z,992.75
2018-06-14T07:38:14.794Z,992.71
2018-06-14T07:39:14.974Z,992.79
2018-06-14T07:40:15.165Z,992.76
2018-06-14T07:41:15.346Z,992.77
2018-06-14T07:42:15.539Z,992.79
2018-06-14T07:43:15.725Z,992.72
2018-06-14T07:45:16.112Z,992.75
2018-06-14T07:46:16.300Z,992.72
2018-06-14T07:47:16.492Z,992.65
2018-06-14T07:48:16.675Z,992.67
2018-06-14T07:49:16.865Z,992.67
2018-06-14T07:50:17.294Z,992.71
2018-06-14T07:51:17.274Z,992.48
2018-06-14T07:52:17.442Z,992.48
2018-06-14T07:53:17.628Z,992.45
2018-06-14T07:54:17.887Z,992.47
2018-06-14T07:55:18.026Z,992.46
2018-06-14T07:56:18.213Z,992.44
2018-06-14T07:57:18.419Z,992.45
2018-06-14T07:58:18.725Z,992.47
2018-06-14T07:59:18.894Z,992.44
2018-06-14T08:00:19.000Z,992.46
2018-06-14T08:01:19.170Z,992.51
2018-06-14T08:02:19.332Z,992.49
2018-06-14T08:03:19.531Z,992.56
2018-06-14T08:04:19.705Z,992.57
2018-06-14T08:05:19.893Z,992.56
2018-06-14T08:06:20.090Z,992.59
2018-06-14T08:07:20.270Z,992.55
2018-06-14T08:08:20.460Z,992.54
2018-06-14T08:09:20.648Z,992.49
2018-06-14T08:10:20.838Z,992.53
2018-06-14T08:11:21.023Z,992.52
2018-06-14T08:12:21.244Z,992.48
2018-06-14T08:13:21.395Z,992.52
2018-06-14T08:14:21.583Z,992.53
2018-06-14T08:15:21.775Z,992.48
2018-06-14T08:16:21.956Z,992.48
2018-06-14T08:17:22.140Z,992.52
2018-06-14T08:18:22.328Z,992.50
2018-06-14T08:19:22.517Z,992.47
2018-06-14T08:20:22.701Z,992.46
2018-06-14T08:21:22.925Z,992.43
2018-06-14T08:22:23.072Z,992.43
2018-06-14T08:23:23.270Z,992.41
2018-06-14T08:24:23.445Z,992.41
2018-06-14T08:25:23.633Z,992.37
2018-06-14T08:26:23.819Z,992.37
2018-06-14T08:27:24.006Z,992.39
2018-06-14T08:28:24.191Z,992.43
2018-06-14T08:29:24.377Z,992.35
2018-06-14T08:30:24.563Z,992.43
2018-06-14T08:31:24.747Z,992.45
2018-06-14T08:33:25.124Z,992.47
2018-06-14T08:34:25.312Z,992.47
2018-06-14T08:35:25.499Z,992.46
2018-06-14T08:36:25.681Z,992.42
2018-06-14T08:37:25.876Z,992.44
2018-06-14T08:38:26.055Z,992.46
2018-06-14T08:39:26.239Z,992.44
2018-06-14T08:40:26.426Z,992.41
2018-06-14T08:41:26.611Z,992.45
2018-06-14T08:42:26.803Z,992.48
2018-06-14T08:43:26.984Z,992.49
2018-06-14T08:44:27.172Z,992.46
2018-06-14T08:45:27.360Z,992.49
2018-06-14T08:46:27.543Z,992.48
2018-06-14T08:47:27.729Z,992.50
2018-06-14T08:48:27.918Z,992.46
2018-06-14T08:49:28.105Z,992.43
2018-06-14T08:50:28.291Z,992.35
2018-06-14T08:51:28.480Z,992.33
2018-06-14T08:52:28.664Z,992.24
2018-06-14T08:53:28.862Z,992.32
2018-06-14T08:54:29.038Z,992.23
2018-06-14T08:55:29.231Z,992.27
2018-06-14T08:56:29.414Z,992.33
2018-06-14T08:57:29.598Z,992.31
2018-06-14T08:58:29.787Z,992.33
2018-06-14T08:59:29.978Z,992.28
2018-06-14T09:00:30.162Z,992.30
2018-06-14T09:01:30.351Z,992.30
2018-06-14T09:02:30.537Z,992.32
2018-06-14T09:03:30.740Z,992.31
2018-06-14T09:04:30.915Z,992.28
2018-06-14T09:05:31.099Z,992.27
2018-06-14T09:06:31.289Z,992.29
2018-06-14T09:07:31.470Z,992.27
2018-06-14T09:08:31.660Z,992.30
2018-06-14T09:09:31.843Z,992.35
2018-06-14T09:10:32.031Z,992.33
2018-06-14T09:11:32.217Z,992.32
2018-06-14T09:12:32.409Z,992.28
2018-06-14T09:13:32.598Z,992.35
2018-06-14T09:14:32.790Z,992.24
2018-06-14T09:15:32.970Z,992.30
2018-06-14T09:16:33.150Z,992.28
2018-06-14T09:17:33.331Z,992.28
2018-06-14T09:18:33.522Z,992.30
2018-06-14T09:19:33.708Z,992.26
2018-06-14T09:20:33.886Z,992.31
2018-06-14T09:21:34.077Z,992.29
2018-06-14T09:22:34.256Z,992.22
2018-06-14T09:23:34.433Z,992.19
2018-06-14T09:24:34.643Z,992.16
2018-06-14T09:25:34.816Z,992.17
2018-06-14T09:26:35.008Z,992.21
2018-06-14T09:27:35.223Z,992.15
2018-06-14T09:28:35.397Z,992.22
2018-06-14T09:29:35.588Z,992.18
2018-06-14T09:30:35.767Z,992.23
2018-06-14T09:31:35.952Z,992.21
2018-06-14T09:32:36.140Z,992.17
2018-06-14T09:33:36.372Z,992.20
2018-06-14T09:34:36.746Z,992.12
2018-06-14T09:35:36.699Z,992.14
2018-06-14T09:36:36.872Z,992.08
2018-06-14T09:37:37.088Z,992.12
2018-06-14T09:38:37.256Z,992.10
2018-06-14T09:39:37.437Z,992.10
2018-06-14T09:40:37.626Z,992.01
2018-06-14T09:41:37.821Z,992.00
2018-06-14T09:42:37.996Z,992.03
2018-06-14T09:43:38.185Z,992.02
2018-06-14T09:44:38.369Z,992.00
2018-06-14T09:45:38.578Z,992.05
2018-06-14T09:46:38.748Z,992.09
2018-06-14T09:47:38.935Z,992.00
2018-06-14T09:48:39.123Z,992.05
2018-06-14T09:49:39.325Z,992.09
2018-06-14T09:50:39.496Z,992.12
2018-06-14T09:51:39.698Z,992.03
2018-06-14T09:52:39.855Z,992.04
2018-06-14T09:53:40.033Z,992.04
2018-06-14T09:54:40.228Z,992.09
2018-06-14T09:55:40.419Z,992.11
2018-06-14T09:56:40.597Z,992.11
2018-06-14T09:57:40.868Z,992.17
2018-06-14T09:58:40.982Z,992.11
2018-06-14T09:59:41.180Z,992.11
2018-06-14T10:00:41.358Z,992.05
2018-06-14T10:01:41.548Z,992.11
2018-06-14T10:02:41.734Z,992.17
2018-06-14T10:03:41.916Z,992.11
2018-06-14T10:04:42.111Z,992.14
2018-06-14T10:05:42.292Z,992.16
2018-06-14T10:06:42.475Z,992.13
2018-06-14T10:07:42.671Z,992.08
2018-06-14T10:08:42.861Z,992.11
2018-06-14T10:09:43.049Z,992.15
2018-06-14T10:10:43.262Z,992.13
2018-06-14T10:11:43.426Z,992.13
2018-06-14T10:12:43.612Z,992.14
2018-06-14T10:13:43.804Z,992.16
2018-06-14T10:14:43.994Z,992.15
2018-06-14T10:15:44.184Z,992.14
2018-06-14T10:16:44.375Z,992.11
2018-06-14T10:17:44.570Z,992.16
2018-06-14T10:18:44.750Z,992.12
2018-06-14T10:19:44.941Z,992.07
2018-06-14T10:20:45.126Z,992.09
2018-06-14T10:21:45.353Z,992.08
2018-06-14T10:22:45.499Z,992.09
2018-06-14T10:23:45.692Z,992.09
2018-06-14T10:24:45.874Z,992.07
2018-06-14T10:25:46.046Z,992.06
2018-06-14T10:26:46.226Z,992.11
2018-06-14T10:27:46.408Z,992.16
2018-06-14T10:28:46.597Z,992.12
2018-06-14T10:29:46.789Z,992.17
2018-06-14T10:30:46.963Z,992.13
2018-06-14T10:31:47.150Z,992.08
2018-06-14T10:32:47.333Z,992.10
2018-06-14T10:33:47.528Z,992.08
2018-06-14T10:34:47.713Z,992.07
2018-06-14T10:35:47.879Z,992.06
2018-06-14T10:36:48.075Z,992.07
2018-06-14T10:37:48.265Z,992.04
2018-06-14T10:38:48.449Z,992.02
2018-06-14T10:39:48.643Z,992.05
2018-06-14T10:40:48.838Z,992.08
2018-06-14T10:41:49.012Z,992.08
2018-06-14T10:42:49.196Z,992.02
2018-06-14T10:43:49.381Z,992.06
2018-06-14T10:44:49.569Z,992.09
2018-06-14T10:45:49.752Z,992.08
2018-06-14T10:46:49.947Z,992.13
2018-06-14T10:47:50.120Z,992.08
2018-06-14T10:48:50.298Z,992.06
2018-06-14T10:49:50.483Z,991.99
2018-06-14T10:51:50.841Z,991.97
2018-06-14T10:52:51.022Z,991.95
2018-06-14T10:53:51.232Z,992.00
2018-06-14T10:54:51.397Z,992.02
2018-06-14T10:55:51.586Z,991.93
2018-06-14T10:56:51.771Z,991.90
2018-06-14T10:57:51.963Z,991.90
2018-06-14T10:58:52.152Z,991.94
2018-06-14T10:59:52.323Z,991.87
2018-06-14T11:00:52.493Z,991.88
2018-06-14T11:01:52.676Z,991.89
2018-06-14T11:02:52.864Z,991.90
2018-06-14T11:03:53.052Z,991.84
2018-06-14T11:04:53.235Z,991.88
2018-06-14T11:05:53.424Z,991.89
2018-06-14T11:06:53.608Z,991.89
2018-06-14T11:07:53.782Z,991.89
2018-06-14T11:08:53.983Z,991.91
2018-06-14T11:09:54.169Z,991.85
2018-06-14T11:10:54.349Z,991.83
2018-06-14T11:11:54.531Z,991.86
2018-06-14T11:12:54.737Z,991.82
2018-06-14T11:13:54.906Z,991.82
2018-06-14T11:15:55.273Z,991.79
2018-06-14T11:16:55.462Z,991.77
2018-06-14T11:17:55.641Z,991.78
2018-06-14T11:18:55.833Z,991.76
2018-06-14T11:19:56.020Z,991.74
2018-06-14T11:20:56.188Z,991.75
2018-06-14T11:21:56.394Z,991.70
2018-06-14T11:22:56.559Z,991.78
2018-06-14T11:23:56.739Z,991.70
2018-06-14T11:24:56.918Z,991.63
2018-06-14T11:25:57.100Z,991.62
2018-06-14T11:26:57.297Z,991.73
2018-06-14T11:27:57.480Z,991.70
2018-06-14T11:28:57.658Z,991.70
2018-06-14T11:29:57.868Z,991.64
2018-06-14T11:30:58.027Z,991.68
2018-06-14T11:31:58.220Z,991.66
2018-06-14T11:32:58.402Z,991.66
2018-06-14T11:33:58.613Z,991.72
2018-06-14T11:34:58.797Z,991.71
2018-06-14T11:35:58.982Z,991.69
2018-06-14T11:36:59.172Z,991.70
2018-06-14T11:37:59.369Z,991.71
2018-06-14T11:38:59.529Z,991.66
2018-06-14T11:39:59.708Z,991.63
2018-06-14T11:40:59.885Z,991.59
2018-06-14T11:42:00.080Z,991.58
2018-06-14T11:43:00.254Z,991.61
2018-06-14T11:44:00.442Z,991.57
2018-06-14T11:45:00.621Z,991.57
2018-06-14T11:46:01.174Z,991.56
2018-06-14T11:47:00.966Z,991.52
2018-06-14T11:48:01.147Z,991.49
2018-06-14T11:49:01.336Z,991.53
2018-06-14T11:50:01.545Z,991.52
2018-06-14T11:51:01.703Z,991.51
2018-06-14T11:52:01.914Z,991.44
2018-06-14T11:53:02.092Z,991.45
2018-06-14T11:54:02.259Z,991.42
2018-06-14T11:55:02.444Z,991.43
2018-06-14T11:56:02.637Z,991.36
2018-06-14T11:57:02.816Z,991.38
2018-06-14T11:58:03.005Z,991.27
2018-06-14T11:59:03.187Z,991.38
2018-06-14T12:00:03.374Z,991.36
2018-06-14T12:01:03.552Z,991.32
2018-06-14T12:02:03.742Z,991.32
2018-06-14T12:03:03.920Z,991.29
2018-06-14T12:04:04.103Z,991.30
2018-06-14T12:05:04.296Z,991.26
2018-06-14T12:06:04.469Z,991.31
2018-06-14T12:07:04.662Z,991.38
2018-06-14T12:08:04.844Z,991.34
2018-06-14T12:09:05.030Z,991.32
2018-06-14T12:10:05.540Z,991.35
2018-06-14T12:11:05.405Z,991.37
2018-06-14T12:12:05.574Z,991.36
2018-06-14T12:13:05.752Z,991.28
2018-06-14T12:14:05.938Z,991.26
2018-06-14T12:15:06.156Z,991.23
2018-06-14T12:16:06.339Z,991.21
2018-06-14T12:17:06.536Z,991.26
2018-06-14T12:18:06.717Z,991.23
2018-06-14T12:19:06.900Z,991.23
2018-06-14T12:20:07.095Z,991.18
2018-06-14T12:21:07.233Z,991.23
2018-06-14T12:22:07.420Z,991.24
2018-06-14T12:23:07.621Z,991.24
2018-06-14T12:24:07.809Z,991.23
2018-06-14T12:25:08.001Z,991.18
2018-06-14T12:26:08.191Z,991.23
2018-06-14T12:27:08.382Z,991.21
2018-06-14T12:28:08.551Z,991.14
2018-06-14T12:29:08.739Z,991.19
2018-06-14T12:30:08.910Z,991.23
2018-06-14T12:31:09.094Z,991.19
2018-06-14T12:32:09.278Z,991.13
2018-06-14T12:33:09.454Z,991.28
2018-06-14T12:34:09.636Z,991.22
2018-06-14T12:35:09.870Z,991.19
2018-06-14T12:36:09.995Z,991.21
2018-06-14T12:37:10.197Z,991.19